createdAt,value
2023-02-14T00:01:20.667Z,64.78
2023-02-14T00:04:06.503Z,72.30
2023-02-14T00:06:52.345Z,62.72
2023-02-14T00:09:38.129Z,63.03
2023-02-14T00:12:23.522Z,66.63
2023-02-14T00:15:22.326Z,66.40
2023-02-14T00:18:08.090Z,66.07
2023-02-14T00:20:53.477Z,68.93
2023-02-14T00:23:39.190Z,65.90
2023-02-14T00:26:24.866Z,65.15
2023-02-14T00:29:13.074Z,72.30
2023-02-14T00:31:59.275Z,70.60
2023-02-14T00:34:44.780Z,64.80
2023-02-14T00:37:30.459Z,74.03
2023-02-14T00:40:16.136Z,74.30
2023-02-14T00:43:01.701Z,75.95
2023-02-14T00:45:47.535Z,71.90
2023-02-14T00:48:33.416Z,67.38
2023-02-14T00:51:18.978Z,69.63
2023-02-14T00:54:04.863Z,67.57
2023-02-14T00:56:50.184Z,77.55
2023-02-14T00:59:35.930Z,77.57
2023-02-14T01:02:21.956Z,71.78
2023-02-14T01:05:07.796Z,76.20
2023-02-14T01:07:53.488Z,74.45
2023-02-14T01:10:40.148Z,72.60
2023-02-14T01:13:25.506Z,72.32
2023-02-14T01:16:14.150Z,78.03
2023-02-14T01:19:01.258Z,74.68
2023-02-14T01:21:46.725Z,72.38
2023-02-14T01:24:32.289Z,73.63
2023-02-14T01:27:17.747Z,78.72
2023-02-14T01:30:03.429Z,70.97
2023-02-14T01:32:49.415Z,77.15
2023-02-14T01:35:38.789Z,73.38
2023-02-14T01:38:24.313Z,72.10
2023-02-14T01:41:10.376Z,70.63
2023-02-14T01:44:07.999Z,73.95
2023-02-14T01:46:53.443Z,66.88
2023-02-14T01:49:45.833Z,74.22
2023-02-14T01:52:41.436Z,65.38
2023-02-14T01:55:32.381Z,66.68
2023-02-14T01:58:25.170Z,69.88
2023-02-14T02:01:15.793Z,68.53
2023-02-14T02:04:25.440Z,67.88
2023-02-14T02:07:17.676Z,65.57
2023-02-14T02:10:05.757Z,65.10
2023-02-14T02:12:53.657Z,71.00
2023-02-14T02:16:11.871Z,72.85
2023-02-14T02:19:38.056Z,71.97
2023-02-14T02:22:35.431Z,74.53
2023-02-14T02:25:26.884Z,74.32
2023-02-14T02:28:48.522Z,69.43
2023-02-14T02:31:58.850Z,68.78
2023-02-14T02:35:18.143Z,72.80
2023-02-14T02:38:12.405Z,68.13
2023-02-14T02:41:15.885Z,68.40
2023-02-14T02:44:06.964Z,65.80
2023-02-14T02:47:22.755Z,72.80
2023-02-14T02:50:32.914Z,71.03
2023-02-14T02:53:36.588Z,70.93
2023-02-14T02:56:56.574Z,69.55
2023-02-14T02:59:45.302Z,72.40
2023-02-14T03:02:54.316Z,73.38
2023-02-14T03:05:40.923Z,74.47
2023-02-14T03:08:26.451Z,73.28
2023-02-14T03:11:13.837Z,66.13
2023-02-14T03:14:18.753Z,75.47
2023-02-14T03:17:54.848Z,69.25
2023-02-14T03:21:17.665Z,71.07
2023-02-14T03:24:35.146Z,74.22
2023-02-14T03:27:30.847Z,70.35
2023-02-14T03:30:36.677Z,72.30
2023-02-14T03:33:30.575Z,69.25
2023-02-14T03:36:25.732Z,72.60
2023-02-14T03:39:14.713Z,73.90
2023-02-14T03:42:07.462Z,75.03
2023-02-14T03:44:55.133Z,71.37
2023-02-14T03:47:43.465Z,79.10
2023-02-14T03:50:31.376Z,74.63
2023-02-14T03:53:25.204Z,75.88
2023-02-14T03:57:16.116Z,83.45
2023-02-14T04:00:01.574Z,73.25
2023-02-14T04:02:59.086Z,77.78
2023-02-14T04:05:46.796Z,78.07
2023-02-14T04:08:32.653Z,81.82
2023-02-14T04:11:18.498Z,80.28
2023-02-14T04:14:04.989Z,78.30
2023-02-14T04:17:08.694Z,81.32
2023-02-14T04:19:54.775Z,82.95
2023-02-14T04:22:40.036Z,87.03
2023-02-14T04:25:25.799Z,82.53
2023-02-14T04:28:11.370Z,85.55
2023-02-14T04:30:56.726Z,85.80
2023-02-14T04:33:42.323Z,79.35
2023-02-14T04:36:28.127Z,77.07
2023-02-14T04:39:13.491Z,78.88
2023-02-14T04:41:58.994Z,84.03
2023-02-14T04:44:44.491Z,78.03
2023-02-14T04:47:30.007Z,83.15
2023-02-14T04:50:15.821Z,70.80
2023-02-14T04:53:01.195Z,75.30
2023-02-14T04:55:49.539Z,74.15
2023-02-14T04:58:35.234Z,75.05
2023-02-14T05:01:21.324Z,80.55
2023-02-14T05:04:07.697Z,71.35
2023-02-14T05:06:53.026Z,84.20
2023-02-14T05:09:38.761Z,76.28
2023-02-14T05:12:24.070Z,74.82
2023-02-14T05:15:10.362Z,74.80
2023-02-14T05:17:56.156Z,70.60
2023-02-14T05:20:41.709Z,80.72
2023-02-14T05:23:26.923Z,81.97
2023-02-14T05:26:12.397Z,81.35
2023-02-14T05:28:58.120Z,85.72
2023-02-14T05:31:43.317Z,93.10
2023-02-14T05:34:28.824Z,95.50
2023-02-14T05:37:14.168Z,91.13
2023-02-14T05:39:59.650Z,89.65
2023-02-14T05:42:45.857Z,90.65
2023-02-14T05:45:31.627Z,89.95
2023-02-14T05:48:18.181Z,98.70
2023-02-14T05:51:05.571Z,93.40
2023-02-14T05:53:51.402Z,87.90
2023-02-14T05:56:37.481Z,88.90
2023-02-14T05:59:23.111Z,90.30
2023-02-14T06:02:09.056Z,90.53
2023-02-14T06:04:55.149Z,91.22
2023-02-14T06:07:43.196Z,79.75
2023-02-14T06:10:28.822Z,91.68
2023-02-14T06:13:14.381Z,82.85
2023-02-14T06:15:59.961Z,88.30
2023-02-14T06:18:45.816Z,86.32
2023-02-14T06:21:31.788Z,86.60
2023-02-14T06:24:17.197Z,92.63
2023-02-14T06:27:03.202Z,87.30
2023-02-14T06:29:49.686Z,85.15
2023-02-14T06:32:35.491Z,89.95
2023-02-14T06:35:21.461Z,86.18
2023-02-14T06:38:07.145Z,91.40
2023-02-14T06:40:52.970Z,87.57
2023-02-14T06:43:39.328Z,98.03
2023-02-14T06:46:24.868Z,102.15
2023-02-14T06:49:10.857Z,87.43
2023-02-14T06:51:56.497Z,98.88
2023-02-14T06:54:42.351Z,99.85
2023-02-14T06:57:28.323Z,101.70
2023-02-14T07:00:14.981Z,102.13
2023-02-14T07:03:00.778Z,100.72
2023-02-14T07:05:46.875Z,96.45
2023-02-14T07:08:32.587Z,104.35
2023-02-14T07:11:18.762Z,98.78
2023-02-14T07:14:07.720Z,97.63
2023-02-14T07:16:53.280Z,113.90
2023-02-14T07:19:38.721Z,93.00
2023-02-14T07:22:24.484Z,99.47
2023-02-14T07:25:10.223Z,98.13
2023-02-14T07:27:56.775Z,100.63
2023-02-14T07:30:42.658Z,88.15
2023-02-14T07:33:36.845Z,104.40
2023-02-14T07:36:22.262Z,96.70
2023-02-14T07:39:08.236Z,106.10
2023-02-14T07:41:53.786Z,94.25
2023-02-14T07:44:39.954Z,94.00
2023-02-14T07:47:25.393Z,90.85
2023-02-14T07:50:11.045Z,104.10
2023-02-14T07:52:56.955Z,99.05
2023-02-14T07:55:42.570Z,92.55
2023-02-14T07:58:28.993Z,91.88
2023-02-14T08:01:16.169Z,85.28
2023-02-14T08:04:11.744Z,90.05
2023-02-14T08:06:57.784Z,83.30
2023-02-14T08:09:43.522Z,89.78
2023-02-14T08:12:47.724Z,86.90
2023-02-14T08:15:53.748Z,90.22
2023-02-14T08:18:46.684Z,90.07
2023-02-14T08:21:35.868Z,97.25
2023-02-14T08:24:22.530Z,84.55
2023-02-14T08:27:08.248Z,90.47
2023-02-14T08:29:54.440Z,83.50
2023-02-14T08:32:41.501Z,90.90
2023-02-14T08:35:28.097Z,90.18
2023-02-14T08:38:21.375Z,89.72
2023-02-14T08:41:09.053Z,97.30
2023-02-14T08:44:09.657Z,90.93
2023-02-14T08:46:55.452Z,100.32
2023-02-14T08:49:41.099Z,89.28
2023-02-14T08:52:26.446Z,87.70
2023-02-14T08:55:13.285Z,76.32
2023-02-14T08:58:00.615Z,70.50
2023-02-14T09:00:46.180Z,62.00
2023-02-14T09:03:32.284Z,55.53
2023-02-14T09:06:18.564Z,51.88
2023-02-14T09:09:04.283Z,54.03
2023-02-14T09:11:50.312Z,46.70
2023-02-14T09:14:40.337Z,43.00
2023-02-14T09:17:26.037Z,48.45
2023-02-14T09:20:13.583Z,44.38
2023-02-14T09:22:59.285Z,42.20
2023-02-14T09:25:44.844Z,44.08
2023-02-14T09:28:31.110Z,41.25
2023-02-14T09:31:18.908Z,42.83
2023-02-14T09:34:23.164Z,39.95
2023-02-14T09:37:11.883Z,43.65
2023-02-14T09:39:57.583Z,38.05
2023-02-14T09:42:46.375Z,44.28
2023-02-14T09:45:33.395Z,38.25
2023-02-14T09:48:20.027Z,38.20
2023-02-14T09:51:16.602Z,41.47
2023-02-14T09:54:10.632Z,39.88
2023-02-14T09:57:04.056Z,39.42
2023-02-14T10:03:03.112Z,38.00
2023-02-14T10:06:25.126Z,37.78
2023-02-14T10:09:26.522Z,34.97
2023-02-14T10:12:29.890Z,37.88
2023-02-14T10:15:20.393Z,35.88
2023-02-14T10:18:14.481Z,41.13
2023-02-14T10:21:02.839Z,40.33
2023-02-14T10:23:58.326Z,39.72
2023-02-14T10:26:46.284Z,39.33
2023-02-14T10:29:32.091Z,34.97
2023-02-14T10:32:35.392Z,34.60
2023-02-14T10:35:38.967Z,31.95
2023-02-14T10:38:33.100Z,32.75
2023-02-14T10:41:27.624Z,37.28
2023-02-14T10:44:25.518Z,29.80
2023-02-14T10:47:38.829Z,29.80
2023-02-14T10:50:35.918Z,25.25
2023-02-14T10:53:51.325Z,24.35
2023-02-14T10:57:14.712Z,23.63
2023-02-14T11:00:06.858Z,23.63
2023-02-14T11:02:57.662Z,25.80
2023-02-14T11:05:47.563Z,21.85
2023-02-14T11:08:41.520Z,24.85
2023-02-14T11:11:46.806Z,23.35
2023-02-14T11:14:38.125Z,24.02
2023-02-14T11:17:31.723Z,24.73
2023-02-14T11:20:30.340Z,21.13
2023-02-14T11:23:24.887Z,17.92
2023-02-14T11:26:32.979Z,22.00
2023-02-14T11:29:45.701Z,23.55
2023-02-14T11:32:34.581Z,21.35
2023-02-14T11:35:27.153Z,22.60
2023-02-14T11:38:35.774Z,21.23
2023-02-14T11:41:21.423Z,21.13
2023-02-14T11:44:22.310Z,22.90
2023-02-14T11:47:28.181Z,20.00
2023-02-14T11:50:25.913Z,19.77
2023-02-14T11:53:19.725Z,18.85
2023-02-14T11:56:05.932Z,19.45
2023-02-14T11:59:00.970Z,22.05
2023-02-14T12:01:46.951Z,17.25
2023-02-14T12:04:45.754Z,18.17
2023-02-14T12:07:38.137Z,16.35
2023-02-14T12:10:28.905Z,16.20
2023-02-14T12:13:14.428Z,13.48
2023-02-14T12:16:01.162Z,13.00
2023-02-14T12:19:06.091Z,15.23
2023-02-14T12:22:02.828Z,13.63
2023-02-14T12:25:03.463Z,13.82
2023-02-14T12:27:56.993Z,14.35
2023-02-14T12:30:42.978Z,13.68
2023-02-14T12:33:28.785Z,13.68
2023-02-14T12:36:49.572Z,13.63
2023-02-14T12:39:53.100Z,16.90
2023-02-14T12:42:57.758Z,13.75
2023-02-14T12:45:48.801Z,20.88
2023-02-14T12:48:47.281Z,15.20
2023-02-14T12:52:07.213Z,13.60
2023-02-14T12:55:23.395Z,17.63
2023-02-14T12:58:24.307Z,12.38
2023-02-14T13:01:39.023Z,10.27
2023-02-14T13:04:27.973Z,10.80
2023-02-14T13:07:23.796Z,9.98
2023-02-14T13:10:23.113Z,10.88
2023-02-14T13:13:33.391Z,8.85
2023-02-14T13:17:00.640Z,10.95
2023-02-14T13:19:57.314Z,9.90
2023-02-14T13:22:43.662Z,9.75
2023-02-14T13:25:33.752Z,8.70
2023-02-14T13:28:20.945Z,13.38
2023-02-14T13:31:07.214Z,11.13
2023-02-14T13:34:08.454Z,10.07
2023-02-14T13:36:59.067Z,9.27
2023-02-14T13:39:57.104Z,10.85
2023-02-14T13:42:51.750Z,9.60
2023-02-14T13:46:18.120Z,8.38
2023-02-14T13:49:16.503Z,14.45
2023-02-14T13:52:07.360Z,8.65
2023-02-14T13:55:04.773Z,11.38
2023-02-14T13:58:19.336Z,12.63
2023-02-14T14:01:36.824Z,12.80
2023-02-14T14:04:28.607Z,11.73
2023-02-14T14:07:19.019Z,13.88
2023-02-14T14:10:05.994Z,19.10
2023-02-14T14:12:53.078Z,13.18
2023-02-14T14:15:58.960Z,13.00
2023-02-14T14:18:45.068Z,10.27
2023-02-14T14:21:37.691Z,11.80
2023-02-14T14:24:31.761Z,13.73
2023-02-14T14:27:23.217Z,12.20
2023-02-14T14:30:21.288Z,9.82
2023-02-14T14:33:29.491Z,12.43
2023-02-14T14:36:23.280Z,11.82
2023-02-14T14:39:10.525Z,14.77
2023-02-14T14:41:57.208Z,16.10
2023-02-14T14:44:52.951Z,16.83
2023-02-14T14:47:43.394Z,15.85
2023-02-14T14:50:32.406Z,17.75
2023-02-14T14:53:28.028Z,15.77
2023-02-14T14:56:25.491Z,17.08
2023-02-14T14:59:27.789Z,15.93
2023-02-14T15:02:26.535Z,14.55
2023-02-14T15:05:27.078Z,16.10
2023-02-14T15:08:23.316Z,14.65
2023-02-14T15:11:46.938Z,16.20
2023-02-14T15:14:42.114Z,14.10
2023-02-14T15:17:31.818Z,13.52
2023-02-14T15:20:21.538Z,14.35
2023-02-14T15:23:15.968Z,14.63
2023-02-14T15:26:01.775Z,16.13
2023-02-14T15:28:58.876Z,21.20
2023-02-14T15:31:45.392Z,14.98
2023-02-14T15:34:36.119Z,17.05
2023-02-14T15:37:23.002Z,22.90
2023-02-14T15:40:16.221Z,17.80
2023-02-14T15:43:30.931Z,15.05
2023-02-14T15:46:32.463Z,15.02
2023-02-14T15:49:21.458Z,15.10
2023-02-14T15:52:07.694Z,13.80
2023-02-14T15:54:53.211Z,15.88
2023-02-14T15:57:39.319Z,14.75
2023-02-14T16:00:25.655Z,17.17
2023-02-14T16:03:19.422Z,17.10
2023-02-14T16:06:05.507Z,19.23
2023-02-14T16:08:56.371Z,18.85
2023-02-14T16:11:41.694Z,18.33
2023-02-14T16:14:35.287Z,20.98
2023-02-14T16:17:35.347Z,21.08
2023-02-14T16:20:40.939Z,22.58
2023-02-14T16:23:29.698Z,18.80
2023-02-14T16:26:15.397Z,19.73
2023-02-14T16:29:05.700Z,25.05
2023-02-14T16:32:14.472Z,23.52
2023-02-14T16:35:01.321Z,20.52
2023-02-14T16:37:48.603Z,20.50
2023-02-14T16:40:35.131Z,19.02
2023-02-14T16:43:21.421Z,21.15
2023-02-14T16:46:09.508Z,20.95
2023-02-14T16:48:55.412Z,20.27
2023-02-14T16:51:44.352Z,21.23
2023-02-14T16:54:30.247Z,24.38
2023-02-14T16:57:41.114Z,24.77
2023-02-14T17:00:28.367Z,27.20
2023-02-14T17:03:14.325Z,29.17
2023-02-14T17:06:01.354Z,22.70
2023-02-14T17:08:49.142Z,25.02
2023-02-14T17:11:38.342Z,25.83
2023-02-14T17:14:27.869Z,27.60
2023-02-14T17:17:13.946Z,21.33
2023-02-14T17:19:59.510Z,29.48
2023-02-14T17:22:45.259Z,29.83
2023-02-14T17:25:31.407Z,31.52
2023-02-14T17:28:17.397Z,29.20
2023-02-14T17:31:04.399Z,22.75
2023-02-14T17:33:50.139Z,27.40
2023-02-14T17:36:35.691Z,26.83
2023-02-14T17:39:21.293Z,25.83
2023-02-14T17:42:07.001Z,30.05
2023-02-14T17:44:52.601Z,24.88
2023-02-14T17:47:39.572Z,30.98
2023-02-14T17:50:25.048Z,29.88
2023-02-14T17:53:12.565Z,35.78
2023-02-14T17:55:58.202Z,31.25
2023-02-14T17:58:44.459Z,31.33
2023-02-14T18:01:36.249Z,28.17
2023-02-14T18:04:31.169Z,26.55
2023-02-14T18:07:17.134Z,31.98
2023-02-14T18:10:02.367Z,27.20
2023-02-14T18:12:48.293Z,31.48
2023-02-14T18:15:33.865Z,27.73
2023-02-14T18:18:19.720Z,32.45
2023-02-14T18:21:07.786Z,34.88
2023-02-14T18:23:53.651Z,29.27
2023-02-14T18:26:41.122Z,30.60
2023-02-14T18:29:26.847Z,29.27
2023-02-14T18:32:12.372Z,26.23
2023-02-14T18:34:57.927Z,31.95
2023-02-14T18:37:43.614Z,32.95
2023-02-14T18:40:29.271Z,39.10
2023-02-14T18:43:14.871Z,37.58
2023-02-14T18:46:05.680Z,45.40
2023-02-14T18:48:52.007Z,38.88
2023-02-14T18:51:39.483Z,38.35
2023-02-14T18:54:25.357Z,37.05
2023-02-14T18:57:10.789Z,34.17
2023-02-14T18:59:56.565Z,38.45
2023-02-14T19:02:42.412Z,38.05
2023-02-14T19:05:28.185Z,40.28
2023-02-14T19:08:13.347Z,40.30
2023-02-14T19:10:59.620Z,40.38
2023-02-14T19:13:51.026Z,36.47
2023-02-14T19:16:42.127Z,46.08
2023-02-14T19:19:27.879Z,43.53
2023-02-14T19:22:13.607Z,46.45
2023-02-14T19:24:59.555Z,42.40
2023-02-14T19:27:45.202Z,44.78
2023-02-14T19:30:30.728Z,47.45
2023-02-14T19:33:16.578Z,51.70
2023-02-14T19:36:05.525Z,50.55
2023-02-14T19:38:53.465Z,49.05
2023-02-14T19:41:40.050Z,48.03
2023-02-14T19:44:26.004Z,44.47
2023-02-14T19:47:28.749Z,46.50
2023-02-14T19:50:21.946Z,49.72
2023-02-14T19:53:07.476Z,50.65
2023-02-14T19:55:53.157Z,48.60
2023-02-14T19:58:38.945Z,46.90
2023-02-14T20:01:29.021Z,51.53
2023-02-14T20:04:18.135Z,49.78
2023-02-14T20:07:03.997Z,48.90
2023-02-14T20:09:50.297Z,51.63
2023-02-14T20:12:36.488Z,48.42
2023-02-14T20:15:21.719Z,51.28
2023-02-14T20:18:07.736Z,53.95
2023-02-14T20:21:02.737Z,54.05
2023-02-14T20:23:48.394Z,53.17
2023-02-14T20:26:36.401Z,45.15
2023-02-14T20:29:23.347Z,48.53
2023-02-14T20:32:11.352Z,45.63
2023-02-14T20:34:57.959Z,46.78
2023-02-14T20:37:44.223Z,61.67
2023-02-14T20:40:29.713Z,61.38
2023-02-14T20:43:15.220Z,59.10
2023-02-14T20:46:02.539Z,62.72
2023-02-14T20:48:50.955Z,49.22
2023-02-14T20:51:36.289Z,50.03
2023-02-14T20:54:24.076Z,47.97
2023-02-14T20:57:09.727Z,50.35
2023-02-14T20:59:55.180Z,48.13
2023-02-14T21:02:40.920Z,49.38
2023-02-14T21:05:26.469Z,45.25
2023-02-14T21:08:12.556Z,49.53
2023-02-14T21:10:58.538Z,54.67
2023-02-14T21:13:44.597Z,50.08
2023-02-14T21:16:30.652Z,51.05
2023-02-14T21:19:16.224Z,45.38
2023-02-14T21:22:01.738Z,51.33
2023-02-14T21:24:47.527Z,50.10
2023-02-14T21:27:33.153Z,51.25
2023-02-14T21:30:18.801Z,51.60
2023-02-14T21:33:04.480Z,52.33
2023-02-14T21:35:50.204Z,50.85
2023-02-14T21:38:36.892Z,50.40
2023-02-14T21:41:24.547Z,52.63
2023-02-14T21:44:30.248Z,53.55
2023-02-14T21:47:15.986Z,52.28
2023-02-14T21:50:22.214Z,52.63
2023-02-14T21:53:08.048Z,55.65
2023-02-14T21:55:58.017Z,57.30
2023-02-14T21:58:49.510Z,55.45
2023-02-14T22:01:43.690Z,57.92
2023-02-14T22:04:29.811Z,61.65
2023-02-14T22:07:23.017Z,67.93
2023-02-14T22:10:14.770Z,55.05
2023-02-14T22:13:00.547Z,59.35
2023-02-14T22:15:47.104Z,59.45
2023-02-14T22:18:33.231Z,57.75
2023-02-14T22:21:24.867Z,59.63
2023-02-14T22:24:11.305Z,52.67
2023-02-14T22:26:57.841Z,58.53
2023-02-14T22:29:47.370Z,61.20
2023-02-14T22:32:33.496Z,52.53
2023-02-14T22:35:19.358Z,55.42
2023-02-14T22:38:05.154Z,53.65
2023-02-14T22:40:50.776Z,56.35
2023-02-14T22:43:37.694Z,57.95
2023-02-14T22:46:28.965Z,56.15
2023-02-14T22:49:14.628Z,51.80
2023-02-14T22:51:59.953Z,49.15
2023-02-14T22:54:45.642Z,52.75
2023-02-14T22:57:35.830Z,56.17
2023-02-14T23:00:22.117Z,58.00
2023-02-14T23:03:07.801Z,60.17
2023-02-14T23:06:03.032Z,53.92
2023-02-14T23:08:51.003Z,50.40
2023-02-14T23:11:41.650Z,56.25
2023-02-14T23:14:55.637Z,64.40
2023-02-14T23:17:59.746Z,53.65
2023-02-14T23:21:03.966Z,57.03
2023-02-14T23:23:49.284Z,62.75
2023-02-14T23:26:37.301Z,56.78
2023-02-14T23:29:23.089Z,51.20
2023-02-14T23:32:09.038Z,59.22
2023-02-14T23:34:54.968Z,56.85
2023-02-14T23:37:41.743Z,47.63
2023-02-14T23:40:27.585Z,50.05
2023-02-14T23:43:12.972Z,51.90
2023-02-14T23:46:00.403Z,47.63
2023-02-14T23:48:46.653Z,43.80
2023-02-14T23:51:34.312Z,48.55
2023-02-14T23:54:21.517Z,51.38
2023-02-14T23:57:08.013Z,51.88
2023-02-14T23:59:53.637Z,51.38
